• Join FlightAware (Why Join?)
  • Login
  • US Flag 
02:49PM EDT


 

Airport Tracker/Info


-or-


 

Live Flight TrackerFlight Track Log ✈ UAL582 ✈ 04-Sep-2013 ✈ CYYZ - KORD

Flight Track Log - Related Links

Times and Time Zones

All times are in EDT time to prevent confusion due to time zone crossing. See the UAL582 flight status page for this flight to view local times or setup timezone preferences in your user account.

Time Position Orientation Groundspeed Altitude Reporting Facility
EDT Latitude Longitude Course Direction KTS MPH feet Rate Location/Type
05:11PM 43.6667 -79.6500 277° West 120 138 1,700  Level Toronto Center
05:12PM 43.6333 -79.7000 227° Southwest 200 230 4,000 2,400 Climbing Toronto Center
05:13PM 43.6333 -79.8000 270° West 240 276 6,500 1,920 Climbing Toronto Center
05:14PM 43.7107 -80.0946 277° West  Level FlightAware Approximate
05:14PM 43.6667 -79.8667 305° West 250 288 7,900  Level Toronto Center
05:15PM 43.7167 -80.2152 270° West  Level FlightAware Approximate
05:15PM 43.6833 -79.9833 281° West 250 288 10,600  Level Toronto Center
05:16PM 43.7275 -80.3354 277° West  Level FlightAware Approximate
05:16PM 43.7000 -80.1000 281° West 310 357 12,700  Level Toronto Center
05:17PM 43.7000 -80.2167 270° West 330 380 15,700 2,700 Climbing Toronto Center
05:18PM 43.7167 -80.3500 280° West 340 391 18,200 2,460 Climbing Toronto Center
05:19PM 43.7333 -80.4667 281° West 350 403 20,700 2,700 Climbing Toronto Center
05:20PM 43.7333 -80.6000 270° West 340 391 23,600 2,460 Climbing Toronto Center
05:21PM 43.6667 -80.7167 232° Southwest 360 414 25,700 1,860 Climbing Toronto Center
05:22PM 43.5667 -80.7667 200° South 390 449 27,400 1,680 Climbing Toronto Center
05:23PM 43.4333 -80.8333 200° South 410 472 29,100 1,680 Climbing Toronto Center
05:24PM 43.3333 -80.9000 206° Southwest 410 472 30,800 1,440 Climbing Toronto Center
05:25PM 43.2333 -80.9667 206° Southwest 420 483 32,000 900 Climbing Toronto Center
05:26PM 43.1667 -81.0667 228° Southwest 410 472 32,600 900 Climbing Toronto Center
05:27PM 43.1500 -81.2333 262° West 410 472 33,800 1,320 Climbing Toronto Center
05:28PM 43.1500 -81.4000 270° West 410 472 35,300 1,080 Climbing Toronto Center
05:29PM 43.1333 -81.5333 260° West 400 460 36,000 300 Climbing Toronto Center
05:30PM 43.1333 -81.6833 270° West 400 460 36,000  Level Toronto Center
05:31PM 43.1167 -81.8500 262° West 400 460 36,000  Level Toronto Center
05:32PM 43.1000 -81.9833 260° West 400 460 36,000  Level Toronto Center
05:33PM 43.0833 -82.1500 262° West 390 449 36,000  Level Toronto Center
05:34PM 43.0833 -82.2833 270° West 390 449 36,000  Level Toronto Center
05:35PM 43.0667 -82.4333 261° West 390 449 36,000  Level Toronto Center
05:36PM 43.0667 -82.5833 270° West 390 449 36,000  Level Toronto Center
05:37PM 43.0333 -82.7167 251° West 390 449 36,000  Level Toronto Center
05:38PM 43.0333 -82.8667 270° West 390 449 36,000  Level Toronto Center
05:39PM 43.0167 -83.0000 260° West 390 449 36,000  Level Toronto Center
05:40PM 43.0167 -83.1667 270° West 390 449 36,000 -180 Level Toronto Center
05:41PM 42.9833 -83.3000 251° West 390 449 35,700 -660 Descending Toronto Center
05:42PM 42.9833 -83.4667 270° West 390 449 34,700 -960 Descending Toronto Center
05:43PM 42.9667 -83.6000 260° West 390 449 33,800 -1,020 Descending Toronto Center
05:44PM 42.9500 -83.7500 261° West 400 460 32,700 -900 Descending Toronto Center
05:45PM 42.9333 -83.9167 262° West 400 460 32,000 -360 Descending Toronto Center
05:46PM 42.9333 -84.0500 270° West 410 472 32,000  Level Toronto Center
05:47PM 42.9000 -84.2333 256° West 410 472 32,000  Level Toronto Center
05:48PM 42.9000 -84.3667 270° West 410 472 32,000  Level Toronto Center
05:49PM 42.8833 -84.5333 262° West 410 472 32,000  Level Toronto Center
05:50PM 42.8667 -84.6833 261° West 410 472 32,000  Level Toronto Center
05:51PM 42.8500 -84.8167 260° West 410 472 32,000  Level Toronto Center
05:52PM 42.8333 -84.9833 262° West 410 472 32,000 -120 Level Toronto Center
05:53PM 42.8186 -85.1975 265° West 407 468 31,800 -480 Descending Chicago Center
05:54PM 42.8025 -85.3489 262° West 405 466 30,900 -960 Descending Chicago Center
05:55PM 42.7853 -85.5008 261° West 405 466 29,900 -960 Descending Chicago Center
05:56PM 42.7583 -85.6506 256° West 405 466 28,900 -1,260 Descending Chicago Center
05:57PM 42.7308 -85.8017 256° West 407 468 27,300 -1,920 Descending Chicago Center
05:58PM 42.7042 -85.9489 256° West 402 463 25,000 -2,460 Descending Chicago Center
05:59PM 42.6733 -86.1203 256° West 390 449 22,300 -2,340 Descending Chicago Center
06:00PM 42.6478 -86.2575 256° West 375 432 20,200 -1,680 Descending Chicago Center
06:01PM 42.6228 -86.3919 256° West 368 423 18,900 -1,200 Descending Chicago Center
06:02PM 42.5994 -86.5233 256° West 360 414 17,800 -1,140 Descending Chicago Center
06:03PM 42.5750 -86.6489 255° West 347 399 16,600 -1,200 Descending Chicago Center
06:05PM 42.5478 -86.7744 254° West 348 400 15,400 -1,200 Descending Chicago Center
06:06PM 42.5144 -86.8931 249° West 340 391 14,200 -1,320 Descending Chicago Center
06:07PM 42.4772 -87.0367 251° West 337 388 12,700 -1,200 Descending Chicago Center
06:08PM 42.4444 -87.1500 249° West 327 376 11,700 -1,020 Descending Chicago Center
06:09PM 42.3764 -87.2056 211° Southwest 318 366 10,600 -1,320 Descending Chicago Center
06:10PM 42.2828 -87.2303 191° South 311 358 9,000 -840 Descending Chicago Center
06:11PM 42.1997 -87.2542 192° South 309 356 8,900 -300 Descending Chicago Center
06:12PM 42.1169 -87.2775 192° South 306 352 8,400 -660 Descending Chicago Center
06:13PM 42.0361 -87.3022 193° South 301 346 7,600 -780 Descending Chicago Center
06:14PM 41.9886 -87.4075 239° Southwest 278 320 6,900 -360 Descending Chicago Center
06:15PM 41.9836 -87.5003 266° West 251 289 6,900 -720 Level Chicago Center
06:16PM 41.9836 -87.5847 270° West 230 265 5,500 -1,500 Descending Chicago Center
06:17PM 41.9833 -87.6500 270° West 222 255 4,400 -1,560 Descending Chicago TRACON
06:18PM 41.9833 -87.7167 270° West 213 245 2,900 -1,200 Descending Chicago TRACON
06:19PM 41.9833 -87.8000 270° West 174 200 2,000 -900 Descending Chicago TRACON
06:20PM 41.9833 -87.8500 270° West 131 151 1,200 -840 Descending Chicago TRACON